logo
Rechercher aéroport 
image banner adimage banner adimage banner ad
image banner ad

FAEC - Umtshezi Municipality

Situé à Estcourt, South Africa

ICAO - FAEC, IATA -

Données fournies par Airmate  

Information générale

Coordonnées: S29°2'50" E29°54'38"
Élévation : 4262 feet MSL.
Variation magnétique : -25° East
Évalué:
Voir évaluations:
[VIEW]
Voir autres Aéroports à Kwazulu-Natal

Données opérationnelles

Special qualification required
Heure actuelle UTC:
Heure actuelle locale:
Météo à : - ( 0 km )
METAR: KNFE 172337Z AUTO 05007KT 10SM SCT010 BKN015 17/13 A2997 RMK AO2 T01720128
Voir NOTAMs / SUP AIP / TFR affectant cet aéroport [VIEW]
Fréquences de communication: [VIEW]

Pistes:

Identifiant RWYQFULongueur (ft)Largeur (ft)SurfaceLDA (ft)
0140260UNK
1940260UNK
1400UNK
3200UNK

Coordonnées de l'aéroport

Adresse: Estcourt South Africa

Vue satellite de FAEC